LFPT

Pontoise - Cormeilles-en-Vexin Airport

Airport
ICAO code
LFPT
IATA Code
POX
Summary
ICAO Region
EUR
ICAO Territory
Location

, Ile-de-France

Serving
Pontoise
Elevation
325 ft
Coordinates
49° 5' 48" N , 2° 2' 27" E
Metar
Observation
LFPT 030130Z AUTO 04012KT 5000 BR OVC010 03/02 Q1018
Station
Pontoise - Cormeilles-en-Vexin
Date/Time
2022-12-03 01:30:00
Wind direction
40°
Wind speed
12 kts
Lowest cloud amount
overcast
Temperature
3°C
Dew point
2°C
Humidity
93%
QNH
1018 hPa
Weather condition
n/a

Runways

Designator Length Width Surface Rops
12/30 1650 50 ASP Yes/Yes
5/23 1689 50 ASP Yes/Yes

Airport map

Aerial View

SKYbrary Partners:

Safety knowledge contributed by: